Terminal Aerodrome Forecast
Issued by NWS

Home | Current Version | Previous Version | Text Only | Print | Product List | Glossary On
Versions: 1 2 3 4 5 6 7 8 9 10 11 12 13 14 15 16 17 18 19
000
FTUS44 KOHX 241700
TAFCKV
TAF
KCKV 241720Z 2418/2518 16012G22KT P6SM SCT050 BKN250
     FM250800 16011G18KT P6SM VCSH OVC050
     FM251000 17010G18KT P6SM -SHRA VCTS BKN025CB OVC035
     FM251400 19010G18KT 5SM -SHRA VCTS OVC015CB=

USA.gov is the U.S. government's official web portal to all federal, state and local government web resources and services.